Cross Junction, VA

6:23 PM EDT on October 31, 2014 (GMT -0400)
Hagerstown Regional-Henson | Change Station
CLOSE
Current Station
Airport
Location: Hagerstown,
Elevation: 705 ft
Nearby Weather Stations

Elev 705 ft 39.71 °N, 77.73 °W | Updated 30 minutes ago

Overcast
Overcast
51 °F
Feels Like 51 °F
N
5
Wind Variable Wind from East

Today
High -- | Low -- °F
--% Chance of Precip.
Yesterday
High -- | Low -- °F
Precip. -- in
7:40 AM 6:13 PM
First Quarter, 59% visible
Pressure 29.90 in
Visibility 10.0 miles
Clouds Overcast 6000 ft
Dew Point 34 °F
Humidity 52%
Rainfall 0.00 in
Snow Depth Not available.
UV 0 out of 12
Pollen .10 out of 12
Air Quality Not available.
Flu Activity Not available.
METAR KHGR 312153Z 09004KT 10SM OVC060 11/01 A2986 RMK AO2 SLP124 T01060011

More Conditions Fewer Conditions

Pressure 29.90 in
Visibility 10.0 miles
Clouds Overcast 6000 ft
Dew Point 34 °F
Humidity 52%
Rainfall 0.00 in
Snow Depth Not available.
UV 0 out of 12
Pollen .10 out of 12
Air Quality Not available.
Flu Activity Not available.
METAR KHGR 312153Z 09004KT 10SM OVC060 11/01 A2986 RMK AO2 SLP124 T01060011

More Conditions Fewer Conditions

10-Day Weather Forecast

Almanac

Astronomy

Oct. 31, 2014 Rise Set
Actual Time
Civil Twilight
Nautical Twilight
Astronomical Twilight
Moon
Length of Visible Light
Length of Day
Tomorrow will be .
, % of the Moon is Illuminated

Today's Extremes

State Highs State Lows

Community

WunderPhotos

Upload Photos

1,766,757 photos uploaded!

WunderBlogs® & News

Nearby

Air Quality

  Air Quality AQ Index Pollutant
Not available.

Snow Depth

Station Depth Elevation

Earthquake Activity

City Distance Mag. Time & Date
Minimum magnitude displayed is 2.5.

Coastal Water Temperatures

Place Temperature

Nearby Weather Stations